Date,TemperatureHighF,TemperatureAvgF,TemperatureLowF,DewpointHighF,DewpointAvgF,DewpointLowF,HumidityHigh,HumidityAvg,HumidityLow,PressureMaxIn,PressureMinIn,WindSpeedMaxMPH,WindSpeedAvgMPH,GustSpeedMaxMPH,PrecipitationSumIn
2013-3-1,75,68,59,61,58,55,93,73,52,30.20,30.09,7,2,0,0.00
2013-3-2,74,66,58,63,60,55,92,81,63,30.20,30.08,6,1,0,0.00
2013-3-3,76,68,60,65,60,55,94,77,51,30.19,30.11,6,2,0,0.00
2013-3-4,75,66,58,64,60,55,93,79,53,30.22,30.10,6,1,0,0.00
2013-3-5,75,67,58,65,60,55,92,80,61,30.17,30.06,5,1,0,0.00
2013-3-6,75,67,61,67,62,59,94,87,65,30.17,30.06,3,0,0,0.00
2013-3-7,78,67,59,66,62,57,95,84,60,30.13,29.98,4,0,0,0.00
2013-3-8,80,69,63,67,63,60,94,81,56,30.06,29.89,3,0,0,0.00
2013-3-9,79,70,63,67,64,61,94,80,59,30.00,29.88,5,1,0,0.00
2013-3-10,81,71,63,67,64,60,93,79,58,30.03,29.88,7,2,0,0.00
2013-3-11,84,69,60,70,64,55,94,84,57,30.07,29.95,2,0,0,0.00
2013-3-12,74,68,64,68,65,62,94,90,78,30.09,29.97,2,0,0,0.00
2013-3-13,74,67,61,69,64,59,95,91,82,30.10,30.00,3,0,0,0.00
2013-3-14,77,68,59,68,64,57,95,88,71,30.10,29.97,3,0,0,0.00
2013-3-15,73,68,63,71,66,62,95,93,87,30.01,29.90,0,0,0,0.00
2013-3-16,74,66,62,68,64,60,95,91,77,30.03,29.90,5,1,0,0.00
2013-3-17,71,64,62,64,61,60,94,89,74,30.04,29.96,0,0,0,0.00
2013-3-18,75,67,62,65,61,59,95,84,65,30.06,29.95,5,1,0,0.00
2013-3-19,74,66,59,68,63,57,94,88,72,30.05,29.96,4,0,0,0.00
2013-3-20,78,68,58,71,64,56,95,85,68,30.11,29.98,3,0,0,0.00
2013-3-21,82,71,62,70,65,60,95,83,58,30.12,29.99,3,0,0,0.00
2013-3-22,80,70,62,68,64,60,95,82,60,30.08,29.93,2,0,0,0.00
2013-3-23,78,69,63,68,63,60,93,82,56,30.04,29.94,3,0,0,0.00
2013-3-24,77,69,62,68,64,59,93,85,63,30.04,29.94,3,0,0,0.00
2013-3-25,75,70,65,69,66,63,95,89,79,30.05,29.94,3,0,0,0.00
2013-3-26,80,71,64,68,65,62,94,83,65,30.06,29.96,4,1,0,0.00
2013-3-27,76,69,63,67,64,61,94,85,66,30.06,29.93,4,0,0,0.00
2013-3-28,77,68,61,68,63,59,95,85,66,30.08,29.96,5,1,0,0.00
2013-3-29,74,67,61,70,64,59,95,91,80,30.07,29.97,3,0,0,0.00
2013-3-30,73,67,64,68,64,-100,95,93,84,30.07,29.97,3,0,0,0.00
2013-3-31,73,66,61,67,61,58,95,85,70,30.05,29.95,4,1,0,0.00